Time;durP1;ratioP1;P1;durP2;ratioP2;P2;SDS_P1;SDS_P2;PMS_P1;PMS_P2;Temp;Humidity;BMP_temperature;BMP_pressure;BME280_temperature;BME280_humidity;BME280_pressure;Samples;Min_cycle;Max_cycle;Signal;HPM_P1;HPM_P2
2023/09/06 00:00:43;;;;;;;6.50;5.90;;;;;;;14.93;100.00;96725.44;4875446;28;101912;-65
2023/09/06 00:03:11;;;;;;;6.53;5.93;;;;;;;15.07;100.00;96727.31;4878260;28;105400;-65
2023/09/06 00:05:41;;;;;;;6.13;5.63;;;;;;;15.04;100.00;96721.69;4875453;28;101975;-69
2023/09/06 00:08:09;;;;;;;6.93;6.23;;;;;;;15.19;100.00;96719.78;4875322;28;105630;-70
2023/09/06 00:10:38;;;;;;;6.73;6.17;;;;;;;14.89;100.00;96724.38;4891903;28;103074;-70
2023/09/06 00:13:07;;;;;;;5.57;5.17;;;;;;;14.84;100.00;96716.34;4875303;28;101975;-70
2023/09/06 00:15:36;;;;;;;6.23;5.63;;;;;;;15.10;100.00;96721.38;4875149;28;105656;-70
2023/09/06 00:18:06;;;;;;;6.93;6.23;;;;;;;15.41;100.00;96732.88;4892005;28;103141;-70
2023/09/06 00:20:36;;;;;;;7.10;6.50;;;;;;;15.29;100.00;96724.31;4892567;28;101859;-70
2023/09/06 00:23:06;;;;;;;8.27;6.37;;;;;;;15.31;100.00;96722.19;4875235;28;105604;-70
2023/09/06 00:25:34;;;;;;;9.30;6.30;;;;;;;15.16;100.00;96725.66;4877903;28;105551;-68
2023/09/06 00:28:04;;;;;;;6.50;5.97;;;;;;;15.38;100.00;96733.44;4875023;28;105636;-67
2023/09/06 00:30:32;;;;;;;7.40;6.70;;;;;;;15.39;100.00;96724.31;4873922;28;104501;-67
2023/09/06 00:33:05;;;;;;;7.00;6.33;;;;;;;15.24;100.00;96724.31;4875005;28;102348;-67
2023/09/06 00:35:33;;;;;;;7.37;6.77;;;;;;;15.44;100.00;96735.03;4875117;28;105485;-67
2023/09/06 00:38:04;;;;;;;7.20;6.60;;;;;;;15.54;100.00;96737.69;4874438;28;105761;-68
2023/09/06 00:40:31;;;;;;;7.40;6.80;;;;;;;15.80;100.00;96728.47;4875069;28;101933;-68
2023/09/06 00:42:59;;;;;;;7.40;6.70;;;;;;;15.62;100.00;96723.69;4892026;28;102344;-68
2023/09/06 00:45:30;;;;;;;6.53;5.93;;;;;;;15.62;100.00;96724.53;4874197;28;106731;-68
2023/09/06 00:47:58;;;;;;;7.63;6.83;;;;;;;15.56;100.00;96720.25;4878195;28;101897;-65
2023/09/06 00:50:27;;;;;;;7.50;6.80;;;;;;;15.62;100.00;96723.69;4874086;28;105959;-66
2023/09/06 00:52:54;;;;;;;6.97;6.37;;;;;;;15.32;100.00;96723.78;4874952;28;102226;-67
2023/09/06 00:55:22;;;;;;;7.37;6.77;;;;;;;14.76;100.00;96711.50;4874631;28;105405;-68
2023/09/06 00:57:50;;;;;;;5.80;5.20;;;;;;;14.63;100.00;96710.19;4874071;28;105866;-67
2023/09/06 01:00:18;;;;;;;5.50;5.10;;;;;;;14.52;100.00;96721.16;4874696;28;101960;-67
2023/09/06 01:02:47;;;;;;;6.07;5.57;;;;;;;14.85;100.00;96731.34;4876075;28;105356;-67
2023/09/06 01:05:14;;;;;;;6.87;6.03;;;;;;;15.06;100.00;96732.94;4877449;28;106118;-68
2023/09/06 01:07:46;;;;;;;6.37;5.77;;;;;;;14.82;100.00;96726.53;4877878;28;101927;-66
2023/09/06 01:10:13;;;;;;;7.10;6.07;;;;;;;14.96;100.00;96730.25;4880814;28;105660;-65
2023/09/06 01:12:41;;;;;;;6.90;6.30;;;;;;;15.10;100.00;96739.34;4877859;28;101975;-65
2023/09/06 01:15:10;;;;;;;7.23;6.53;;;;;;;14.94;100.00;96737.75;4877805;28;105353;-66
2023/09/06 01:17:41;;;;;;;7.37;6.23;;;;;;;14.95;100.00;96734.00;4877268;28;105457;-65
2023/09/06 01:20:16;;;;;;;7.10;6.20;;;;;;;14.94;100.00;96738.53;4895389;28;102098;-65
2023/09/06 01:22:52;;;;;;;6.83;6.23;;;;;;;14.81;100.00;96731.06;4877875;28;105250;-65
2023/09/06 01:25:21;;;;;;;6.47;5.97;;;;;;;14.44;100.00;96735.06;4877313;28;105605;-65
2023/09/06 01:27:49;;;;;;;6.00;5.40;;;;;;;14.61;100.00;96728.38;4877711;28;101959;-65
2023/09/06 01:30:16;;;;;;;7.90;6.00;;;;;;;14.85;100.00;96739.38;4877198;28;105209;-65
2023/09/06 01:32:43;;;;;;;6.70;6.10;;;;;;;14.79;100.00;96735.91;4880144;28;102017;-65
2023/09/06 01:35:10;;;;;;;7.37;6.67;;;;;;;14.78;100.00;96730.81;4877645;28;105447;-65
2023/09/06 01:37:38;;;;;;;7.47;6.30;;;;;;;14.61;100.00;96725.69;4876951;28;105962;-65
2023/09/06 01:40:17;;;;;;;6.57;6.07;;;;;;;14.61;100.00;96725.69;4877470;28;102401;-65
2023/09/06 01:42:46;;;;;;;7.43;6.40;;;;;;;14.51;100.00;96716.88;4877464;28;105402;-65
2023/09/06 01:45:17;;;;;;;7.50;6.70;;;;;;;14.39;100.00;96727.03;4876982;28;106048;-65
2023/09/06 01:47:45;;;;;;;7.73;6.30;;;;;;;14.39;100.00;96716.34;4894423;28;101953;-65
2023/09/06 01:50:13;;;;;;;6.93;6.17;;;;;;;14.36;100.00;96719.53;4877425;28;105502;-65
2023/09/06 01:52:40;;;;;;;8.23;6.77;;;;;;;14.17;100.00;96721.88;4880067;28;105814;-65
2023/09/06 01:55:09;;;;;;;7.43;6.73;;;;;;;14.41;100.00;96727.56;4877117;28;105464;-65
2023/09/06 01:57:36;;;;;;;6.83;6.23;;;;;;;14.51;100.00;96725.69;4876688;28;105898;-65
2023/09/06 02:00:18;;;;;;;7.20;6.60;;;;;;;14.28;100.00;96723.53;4877110;28;102179;-65
2023/09/06 02:02:46;;;;;;;8.77;6.83;;;;;;;14.24;100.00;96722.47;4894628;28;102441;-65
2023/09/06 02:05:13;;;;;;;7.17;6.47;;;;;;;14.42;100.00;96718.47;4876579;28;105168;-65
2023/09/06 02:07:43;;;;;;;6.47;5.97;;;;;;;14.41;100.00;96712.34;4877191;28;102004;-64
2023/09/06 02:10:11;;;;;;;6.90;6.30;;;;;;;14.53;100.00;96709.38;4876943;28;105425;-64
2023/09/06 02:12:39;;;;;;;8.93;7.10;;;;;;;14.47;100.00;96715.78;4876423;28;105523;-64
2023/09/06 02:15:13;;;;;;;8.03;7.27;;;;;;;13.80;100.00;96712.41;4880466;28;101949;-64
2023/09/06 02:17:43;;;;;;;8.40;7.57;;;;;;;13.40;100.00;96710.38;4876474;28;105522;-67
2023/09/06 02:20:17;;;;;;;7.80;7.10;;;;;;;13.67;100.00;96710.22;4876881;28;101960;-67
2023/09/06 02:22:46;;;;;;;9.47;7.57;;;;;;;14.20;100.00;96713.38;4876967;28;105506;-67
2023/09/06 02:25:14;;;;;;;8.00;7.20;;;;;;;14.16;100.00;96716.78;4876271;28;105532;-67
2023/09/06 02:27:42;;;;;;;8.17;7.20;;;;;;;14.33;100.00;96720.88;4876941;28;102247;-67
2023/09/06 02:30:11;;;;;;;8.00;7.27;;;;;;;14.38;100.00;96723.56;4876160;28;105520;-67
2023/09/06 02:32:38;;;;;;;8.57;7.77;;;;;;;14.26;100.00;96722.19;4876111;28;105796;-67
2023/09/06 02:35:07;;;;;;;9.87;8.23;;;;;;;14.45;100.00;96712.59;4876646;28;101922;-67
2023/09/06 02:37:34;;;;;;;8.77;7.97;;;;;;;14.12;100.00;96713.84;4879524;28;105568;-66
2023/09/06 02:40:03;;;;;;;9.10;8.30;;;;;;;13.93;100.00;96710.06;4876655;28;101918;-66
2023/09/06 02:42:30;;;;;;;8.07;7.37;;;;;;;14.25;100.00;96712.56;4893784;28;102633;-66
2023/09/06 02:44:57;;;;;;;8.50;7.67;;;;;;;14.64;100.00;96708.31;4876012;28;105742;-66
2023/09/06 02:47:28;;;;;;;8.83;8.03;;;;;;;14.25;100.00;96713.38;4876575;28;102008;-66
2023/09/06 02:49:56;;;;;;;8.00;7.30;;;;;;;14.20;100.00;96715.22;4876619;28;105219;-67
2023/09/06 02:52:35;;;;;;;8.77;7.97;;;;;;;14.37;100.00;96710.44;4875869;28;105315;-67
2023/09/06 02:55:05;;;;;;;6.83;6.30;;;;;;;14.19;100.00;96705.56;4876446;28;102221;-67
2023/09/06 02:57:34;;;;;;;7.90;6.80;;;;;;;13.74;100.00;96694.75;4876489;28;104629;-66
2023/09/06 03:00:17;;;;;;;7.60;6.63;;;;;;;13.69;100.00;96698.19;4878998;28;105789;-66
2023/09/06 03:02:47;;;;;;;8.50;6.50;;;;;;;13.71;100.00;96704.09;4876400;28;105696;-67
2023/09/06 03:05:17;;;;;;;9.30;7.30;;;;;;;13.65;100.00;96707.84;4875814;28;105408;-68
2023/09/06 03:07:48;;;;;;;7.43;6.80;;;;;;;13.75;100.00;96707.88;4876242;28;102226;-68
2023/09/06 03:10:19;;;;;;;7.63;7.00;;;;;;;13.91;100.00;96716.72;4876418;28;104131;-68
2023/09/06 03:12:48;;;;;;;7.63;6.93;;;;;;;13.97;100.00;96718.34;4875598;28;105591;-68
2023/09/06 03:15:16;;;;;;;7.67;6.97;;;;;;;14.02;100.00;96723.72;4876178;28;102030;-68
2023/09/06 03:17:46;;;;;;;8.63;7.73;;;;;;;13.72;100.00;96720.94;4876095;28;105271;-67
2023/09/06 03:20:22;;;;;;;9.17;8.20;;;;;;;13.95;100.00;96720.50;4875513;28;105653;-68
2023/09/06 03:22:50;;;;;;;8.57;7.83;;;;;;;14.06;100.00;96722.13;4879187;28;102169;-67
2023/09/06 03:25:18;;;;;;;9.53;8.43;;;;;;;13.78;100.00;96723.38;4874878;28;105584;-67
2023/09/06 03:27:45;;;;;;;8.10;7.30;;;;;;;13.62;100.00;96723.59;4893180;28;101984;-67
2023/09/06 03:30:15;;;;;;;7.40;6.80;;;;;;;13.64;100.00;96727.59;4875318;28;105525;-67
2023/09/06 03:32:49;;;;;;;7.77;6.53;;;;;;;13.43;100.00;96717.06;4875124;28;104606;-67
2023/09/06 03:35:17;;;;;;;8.20;6.50;;;;;;;13.66;100.00;96730.81;4875850;28;102127;-67
2023/09/06 03:37:44;;;;;;;7.00;6.30;;;;;;;13.56;100.00;96732.63;4875596;28;105528;-67
2023/09/06 03:40:25;;;;;;;7.53;6.93;;;;;;;13.45;100.00;96739.78;4875122;28;105968;-67
2023/09/06 03:42:54;;;;;;;7.43;6.73;;;;;;;13.06;100.00;96741.16;4896618;28;101849;-68
2023/09/06 03:45:24;;;;;;;7.60;6.90;;;;;;;13.04;100.00;96739.81;4875065;28;105537;-68
2023/09/06 03:47:54;;;;;;;8.00;7.30;;;;;;;13.11;100.00;96737.72;4875647;28;102036;-67
2023/09/06 03:50:23;;;;;;;8.67;7.93;;;;;;;13.29;100.00;96750.63;4875667;28;105368;-67
2023/09/06 03:52:51;;;;;;;8.13;7.40;;;;;;;13.08;100.00;96751.59;4874769;28;106263;-67
2023/09/06 03:55:18;;;;;;;8.97;8.07;;;;;;;13.42;100.00;96748.31;4875531;28;102012;-68
2023/09/06 03:57:46;;;;;;;8.60;7.80;;;;;;;13.55;100.00;96752.38;4875517;28;105579;-68
2023/09/06 04:00:30;;;;;;;8.90;8.20;;;;;;;13.40;100.00;96742.44;4874695;28;105962;-68
2023/09/06 04:03:11;;;;;;;9.03;7.87;;;;;;;13.22;100.00;96745.53;4875220;28;102382;-68
2023/09/06 04:05:40;;;;;;;8.97;8.17;;;;;;;13.05;100.00;96749.44;4878156;28;105218;-67
2023/09/06 04:08:09;;;;;;;10.37;9.37;;;;;;;13.32;100.00;96747.47;4875414;28;102327;-67
2023/09/06 04:10:38;;;;;;;10.33;9.27;;;;;;;13.24;100.00;96753.31;4875396;28;105238;-68
2023/09/06 04:13:08;;;;;;;11.93;10.70;;;;;;;13.42;100.00;96758.22;4874614;28;105460;-68
2023/09/06 04:15:37;;;;;;;11.37;10.27;;;;;;;13.57;100.00;96760.97;4874249;28;102032;-67
2023/09/06 04:18:06;;;;;;;11.87;10.53;;;;;;;13.42;100.00;96760.88;4874295;28;105291;-71
2023/09/06 04:20:36;;;;;;;11.73;10.53;;;;;;;13.58;100.00;96765.25;4873609;28;105511;-70
2023/09/06 04:23:05;;;;;;;13.37;11.97;;;;;;;13.53;100.00;96762.53;4874427;28;102286;-70
2023/09/06 04:25:41;;;;;;;12.23;10.93;;;;;;;13.60;100.00;96768.44;4874259;28;105974;-68
2023/09/06 04:28:11;;;;;;;12.33;11.13;;;;;;;13.54;100.00;96767.63;4876913;28;105548;-68
2023/09/06 04:30:41;;;;;;;13.20;11.90;;;;;;;13.81;100.00;96775.50;4873418;28;105465;-68
2023/09/06 04:33:12;;;;;;;12.53;11.23;;;;;;;13.61;100.00;96772.72;4873504;28;105861;-68
2023/09/06 04:35:48;;;;;;;12.70;11.40;;;;;;;13.69;100.00;96782.94;4874141;28;102033;-67
2023/09/06 04:38:18;;;;;;;11.83;10.43;;;;;;;13.56;100.00;96781.53;4873000;28;105531;-67
2023/09/06 04:40:48;;;;;;;11.50;10.40;;;;;;;13.36;100.00;96791.31;4873279;28;105687;-67
2023/09/06 04:43:22;;;;;;;12.57;10.50;;;;;;;13.16;100.00;96793.81;4891335;28;102054;-66
2023/09/06 04:45:50;;;;;;;11.30;10.20;;;;;;;13.08;100.00;96791.66;4873899;28;106039;-67
2023/09/06 04:48:19;;;;;;;13.00;11.70;;;;;;;12.71;100.00;96796.09;4873367;28;105735;-67
2023/09/06 04:50:56;;;;;;;12.87;11.00;;;;;;;12.54;100.00;96798.09;4877145;28;101878;-67
2023/09/06 04:53:23;;;;;;;12.63;10.40;;;;;;;12.82;100.00;96803.94;4873114;28;105575;-67
2023/09/06 04:55:53;;;;;;;12.33;10.80;;;;;;;12.89;100.00;96801.06;4858498;28;102126;-68
2023/09/06 04:58:25;;;;;;;12.47;10.70;;;;;;;13.15;100.00;96810.91;4873733;28;105832;-68
2023/09/06 05:00:52;;;;;;;19.90;10.33;;;;;;;13.19;100.00;96804.81;4873037;28;105473;-68
2023/09/06 05:03:23;;;;;;;20.87;11.60;;;;;;;13.31;100.00;96808.09;4873570;28;102178;-67
2023/09/06 05:05:55;;;;;;;36.33;11.63;;;;;;;13.36;100.00;96810.78;4873750;28;105811;-67
2023/09/06 05:08:23;;;;;;;15.90;11.50;;;;;;;13.74;100.00;96810.47;4872920;28;105654;-68
2023/09/06 05:10:51;;;;;;;17.60;12.97;;;;;;;13.48;100.00;96806.09;4873504;28;101910;-68
2023/09/06 05:13:20;;;;;;;14.60;12.50;;;;;;;13.29;100.00;96817.41;4876232;28;105504;-69
2023/09/06 05:15:48;;;;;;;16.47;11.27;;;;;;;13.58;100.00;96802.66;4873481;28;101819;-70
2023/09/06 05:18:15;;;;;;;17.47;10.00;;;;;;;13.49;100.00;96817.56;4873304;28;104300;-69
2023/09/06 05:20:44;;;;;;;11.23;10.13;;;;;;;13.36;100.00;96815.34;4862593;28;401099;-69
2023/09/06 05:23:17;;;;;;;12.07;10.77;;;;;;;13.63;100.00;96816.06;4873503;28;101897;-68
2023/09/06 05:25:46;;;;;;;12.77;11.43;;;;;;;13.72;100.00;96825.16;4873388;28;105473;-67
2023/09/06 05:28:24;;;;;;;18.30;12.27;;;;;;;13.64;100.00;96823.00;4872911;28;106109;-68
2023/09/06 05:30:57;;;;;;;17.57;10.87;;;;;;;13.28;100.00;96818.47;4872861;28;102067;-68
2023/09/06 05:33:24;;;;;;;14.07;12.33;;;;;;;13.22;100.00;96830.19;4873204;28;105262;-68
2023/09/06 05:35:51;;;;;;;12.63;11.33;;;;;;;13.53;100.00;96829.34;4875942;28;105787;-68
2023/09/06 05:38:19;;;;;;;16.43;14.77;;;;;;;13.60;100.00;96828.06;4873316;28;105310;-68
2023/09/06 05:40:50;;;;;;;18.83;16.90;;;;;;;13.65;100.00;96825.41;4872720;28;103991;-69
2023/09/06 05:43:22;;;;;;;18.63;16.63;;;;;;;13.69;100.00;96825.72;4873283;28;102000;-68
2023/09/06 05:45:49;;;;;;;16.30;14.60;;;;;;;13.84;100.00;96821.22;4873150;28;105501;-69
2023/09/06 05:48:17;;;;;;;16.30;14.70;;;;;;;13.76;100.00;96820.91;4873180;28;105732;-69
2023/09/06 05:50:44;;;;;;;26.60;16.90;;;;;;;13.74;100.00;96821.19;4876491;28;101968;-68
2023/09/06 05:53:11;;;;;;;21.40;17.47;;;;;;;13.76;100.00;96821.75;4876065;28;105245;-68
2023/09/06 05:55:40;;;;;;;19.33;16.73;;;;;;;13.71;100.00;96823.56;4879184;28;105356;-76
2023/09/06 05:58:09;;;;;;;17.00;15.20;;;;;;;13.63;100.00;96824.06;4876484;28;104223;-69
2023/09/06 06:00:37;;;;;;;14.27;12.87;;;;;;;13.55;100.00;96829.88;4875855;28;105279;-69
2023/09/06 06:03:05;;;;;;;13.63;12.23;;;;;;;13.76;100.00;96832.44;4876171;28;102135;-70
2023/09/06 06:05:32;;;;;;;13.77;12.23;;;;;;;13.68;100.00;96830.22;4876039;28;104193;-70
2023/09/06 06:07:59;;;;;;;11.00;9.83;;;;;;;13.59;100.00;96834.47;4875582;28;105798;-70
2023/09/06 06:10:29;;;;;;;10.27;9.33;;;;;;;13.64;100.00;96831.03;4877099;28;102177;-67
2023/09/06 06:12:57;;;;;;;10.83;9.83;;;;;;;13.84;100.00;96828.47;4876844;28;105815;-67
2023/09/06 06:15:25;;;;;;;10.60;9.50;;;;;;;14.38;100.00;96829.78;4893697;28;102963;-68
2023/09/06 06:17:52;;;;;;;10.57;9.57;;;;;;;14.67;100.00;96822.88;4880221;28;102225;-67
2023/09/06 06:20:19;;;;;;;11.23;10.13;;;;;;;14.86;100.00;96822.13;4893906;28;102759;-67
2023/09/06 06:22:46;;;;;;;10.63;9.63;;;;;;;14.92;100.00;96826.41;4876054;28;102037;-67
2023/09/06 06:25:13;;;;;;;10.30;9.33;;;;;;;15.01;100.00;96826.66;4876991;28;104936;-67
2023/09/06 06:27:40;;;;;;;9.03;8.27;;;;;;;15.04;100.00;96818.91;4876131;28;106452;-67
2023/09/06 06:30:11;;;;;;;9.43;8.50;;;;;;;15.04;100.00;96807.41;4876356;28;102088;-68
2023/09/06 06:32:38;;;;;;;9.13;8.33;;;;;;;15.26;100.00;96807.94;4876694;28;105649;-68
2023/09/06 06:35:06;;;;;;;9.80;8.80;;;;;;;15.14;100.00;96805.50;4876073;28;106075;-68
2023/09/06 06:37:33;;;;;;;10.00;8.40;;;;;;;15.16;100.00;96805.25;4876601;28;102037;-68
2023/09/06 06:40:00;;;;;;;8.90;8.10;;;;;;;15.06;100.00;96799.88;4879403;28;105233;-68
2023/09/06 06:42:28;;;;;;;9.50;8.60;;;;;;;15.20;100.00;96796.41;4876686;28;102103;-68
2023/09/06 06:44:57;;;;;;;8.93;8.13;;;;;;;15.36;100.00;96805.28;4876402;28;104370;-68
2023/09/06 06:47:26;;;;;;;9.10;8.20;;;;;;;15.24;100.00;96792.13;4875835;28;105585;-68
2023/09/06 06:49:54;;;;;;;9.30;8.30;;;;;;;15.32;100.00;96790.78;4876412;28;101997;-68
2023/09/06 06:52:21;;;;;;;9.20;8.30;;;;;;;15.48;100.00;96803.09;4876329;28;105370;-68
2023/09/06 06:54:48;;;;;;;8.80;8.00;;;;;;;14.97;100.00;96804.97;4875816;28;106191;-67
2023/09/06 06:57:15;;;;;;;8.57;7.87;;;;;;;15.56;100.00;96803.34;3671812;28;20279278;-67
2023/09/06 06:59:42;;;;;;;8.60;7.90;;;;;;;15.67;100.00;96804.13;4875480;28;102170;-67
2023/09/06 07:02:10;;;;;;;9.70;8.80;;;;;;;15.71;100.00;96807.88;4878944;28;105272;-67
2023/09/06 07:04:39;;;;;;;8.40;7.67;;;;;;;15.83;100.00;96806.50;4866059;28;399496;-68
2023/09/06 07:07:06;;;;;;;7.80;7.10;;;;;;;16.03;100.00;96811.78;4876282;28;105559;-68
2023/09/06 07:09:33;;;;;;;7.83;7.10;;;;;;;16.17;100.00;96803.94;4893014;28;103528;-67
2023/09/06 07:12:00;;;;;;;8.37;7.63;;;;;;;16.56;100.00;96807.56;4876347;28;102219;-67
2023/09/06 07:14:27;;;;;;;7.17;6.57;;;;;;;17.01;100.00;96801.88;4876523;28;105440;-67
2023/09/06 07:16:58;;;;;;;8.00;7.30;;;;;;;16.85;100.00;96808.44;4878397;28;105521;-67
2023/09/06 07:19:25;;;;;;;8.20;7.50;;;;;;;16.70;100.00;96803.16;4878814;28;102170;-67
2023/09/06 07:21:55;;;;;;;10.43;7.80;;;;;;;16.72;100.00;96806.34;4878519;28;105747;-67
2023/09/06 07:24:22;;;;;;;10.47;7.57;;;;;;;16.15;100.00;96800.75;4881360;28;106130;-68
2023/09/06 07:26:50;;;;;;;9.00;8.10;;;;;;;16.53;100.00;96806.22;4876797;28;105592;-68
2023/09/06 07:29:18;;;;;;;8.87;8.07;;;;;;;16.68;100.00;96810.72;4877113;28;105938;-67
2023/09/06 07:31:45;;;;;;;8.30;7.57;;;;;;;17.09;100.00;96807.44;4878532;28;102366;-67
2023/09/06 07:34:12;;;;;;;8.77;7.83;;;;;;;17.31;100.00;96798.91;4878296;28;105460;-68
2023/09/06 07:36:40;;;;;;;8.07;7.37;;;;;;;17.90;100.00;96804.81;4876177;28;105933;-67
2023/09/06 07:39:09;;;;;;;8.67;7.40;;;;;;;17.94;100.00;96795.09;4877784;28;102345;-67
2023/09/06 07:41:37;;;;;;;7.77;7.00;;;;;;;17.98;100.00;96798.81;4877775;28;105298;-67
2023/09/06 07:44:04;;;;;;;7.60;6.90;;;;;;;18.14;100.00;96805.63;4893878;28;103128;-67
2023/09/06 07:46:32;;;;;;;7.10;6.40;;;;;;;18.75;100.00;96795.66;4898242;28;102141;-67
2023/09/06 07:48:59;;;;;;;7.33;6.73;;;;;;;19.02;100.00;96801.19;4877029;28;105730;-67
2023/09/06 07:51:26;;;;;;;7.00;6.20;;;;;;;19.16;100.00;96802.03;4877725;28;101930;-67
2023/09/06 07:53:53;;;;;;;7.10;6.40;;;;;;;19.34;100.00;96796.63;4876674;28;104918;-67
2023/09/06 07:56:22;;;;;;;6.53;5.83;;;;;;;19.39;100.00;96796.53;4876221;28;105901;-67
2023/09/06 07:58:50;;;;;;;6.73;6.13;;;;;;;19.70;100.00;96800.31;4893553;28;101868;-67
2023/09/06 08:01:17;;;;;;;6.70;6.10;;;;;;;19.75;100.00;96797.53;4875459;28;105478;-67
2023/09/06 08:03:50;;;;;;;9.67;6.80;;;;;;;19.81;100.00;96803.63;4868307;28;105478;-67
2023/09/06 08:06:17;;;;;;;6.70;6.00;;;;;;;20.27;100.00;96802.44;4872880;28;102356;-67
2023/09/06 08:08:44;;;;;;;7.23;6.10;;;;;;;20.47;100.00;96806.63;4859006;28;104274;-67
2023/09/06 08:11:12;;;;;;;6.40;5.80;;;;;;;20.40;100.00;96803.53;4856325;28;102000;-67
2023/09/06 08:13:41;;;;;;;6.67;6.10;;;;;;;20.55;100.00;96804.00;4873352;28;102911;-68
2023/09/06 08:16:08;;;;;;;6.23;5.63;;;;;;;20.57;100.00;96795.59;4872822;28;103149;-69
2023/09/06 08:18:35;;;;;;;7.00;6.30;;;;;;;20.38;100.00;96797.66;4856327;28;101927;-68
2023/09/06 08:21:03;;;;;;;6.90;5.47;;;;;;;20.53;100.00;96794.59;4856045;28;105694;-68
2023/09/06 08:23:30;;;;;;;7.73;6.20;;;;;;;20.75;100.00;96794.66;4855473;28;105932;-69
2023/09/06 08:25:57;;;;;;;6.30;5.70;;;;;;;20.90;100.00;96797.88;4856190;28;102039;-68
2023/09/06 08:28:24;;;;;;;6.70;6.10;;;;;;;20.96;100.00;96793.13;4858855;28;105105;-69
2023/09/06 08:30:53;;;;;;;6.90;6.07;;;;;;;21.04;100.00;96795.13;4855284;28;102261;-68
2023/09/06 08:33:20;;;;;;;6.20;5.60;;;;;;;21.28;100.00;96796.41;4856003;28;105084;-69
2023/09/06 08:35:47;;;;;;;7.13;5.60;;;;;;;21.11;100.00;96796.28;4872646;28;103113;-71
2023/09/06 08:38:14;;;;;;;5.97;5.47;;;;;;;21.41;100.00;96800.94;4855992;28;102069;-68
2023/09/06 08:40:41;;;;;;;7.07;5.53;;;;;;;21.39;100.00;96799.66;4856046;28;104230;-68
2023/09/06 08:43:09;;;;;;;6.70;6.10;;;;;;;21.66;100.00;96794.91;4855283;28;105678;-68
2023/09/06 08:45:39;;;;;;;7.60;6.00;;;;;;;21.65;100.00;96792.50;4855873;28;102681;-68
2023/09/06 08:48:09;;;;;;;7.13;5.80;;;;;;;21.70;100.00;96798.59;4855916;28;105633;-70
2023/09/06 08:50:38;;;;;;;6.60;5.90;;;;;;;21.41;100.00;96795.53;4858617;28;105511;-68
2023/09/06 08:53:07;;;;;;;8.17;6.50;;;;;;;21.32;100.00;96792.00;4872875;28;102660;-68
2023/09/06 08:55:34;;;;;;;6.50;5.60;;;;;;;21.22;100.00;96796.84;4855127;28;105493;-68
2023/09/06 08:58:03;;;;;;;6.30;5.10;;;;;;;21.35;100.00;96795.94;4855892;28;102026;-70
2023/09/06 09:00:31;;;;;;;6.23;5.73;;;;;;;21.92;100.00;96792.34;4872840;28;103171;-68
2023/09/06 09:02:59;;;;;;;6.83;6.13;;;;;;;21.01;100.00;96801.13;4855178;28;105610;-68
2023/09/06 09:05:28;;;;;;;6.57;5.97;;;;;;;21.57;100.00;96798.66;4855675;28;101965;-68
2023/09/06 09:07:59;;;;;;;6.23;5.60;;;;;;;21.16;100.00;96796.16;4855508;28;105745;-68
2023/09/06 09:10:28;;;;;;;6.03;5.50;;;;;;;21.94;100.00;96803.66;4872087;28;102956;-68
2023/09/06 09:12:58;;;;;;;7.53;6.27;;;;;;;22.01;100.00;96793.97;4876148;28;101936;-68
2023/09/06 09:15:26;;;;;;;6.23;5.30;;;;;;;22.30;100.00;96796.13;4854915;28;105628;-68
2023/09/06 09:17:53;;;;;;;6.00;5.40;;;;;;;22.39;100.00;96795.03;4855619;28;102215;-68
2023/09/06 09:20:21;;;;;;;5.97;5.00;;;;;;;22.64;100.00;96790.81;4855662;28;105546;-68
2023/09/06 09:22:50;;;;;;;5.63;5.13;;;;;;;23.09;100.00;96782.06;4854959;28;105978;-68
2023/09/06 09:25:23;;;;;;;5.43;5.00;;;;;;;23.25;100.00;96790.53;4858816;28;101924;-68
2023/09/06 09:27:55;;;;;;;5.27;4.77;;;;;;;23.25;100.00;96790.53;4876204;28;102890;-68
2023/09/06 09:30:23;;;;;;;7.07;5.97;;;;;;;23.31;100.00;96783.81;4854730;28;105803;-68
2023/09/06 09:32:57;;;;;;;5.43;5.00;;;;;;;23.12;100.00;96789.59;4857011;28;101958;-68
2023/09/06 09:35:27;;;;;;;5.30;4.90;;;;;;;23.01;100.00;96785.59;4859810;29;102944;-68
2023/09/06 09:37:56;;;;;;;5.10;4.70;;;;;;;23.28;100.00;96784.47;4855590;29;102033;-68
2023/09/06 09:40:39;;;;;;;8.77;6.13;;;;;;;23.18;100.00;96787.53;4855426;28;105772;-68
2023/09/06 09:43:06;;;;;;;7.10;5.37;;;;;;;22.58;100.00;96778.53;4800890;29;105607;-68
2023/09/06 09:45:43;;;;;;;7.50;5.47;;;;;;;22.44;100.00;96778.66;4801359;29;102133;-68
2023/09/06 09:48:10;;;;;;;5.83;4.87;;;;;;;23.12;100.00;96775.22;4801436;29;104913;-68
2023/09/06 09:50:41;;;;;;;5.73;4.80;;;;;;;23.44;100.00;96767.34;4800936;29;105649;-68
2023/09/06 09:53:10;;;;;;;5.23;4.80;;;;;;;23.58;100.00;96767.97;4817084;29;102010;-68
2023/09/06 09:55:46;;;;;;;8.53;5.83;;;;;;;22.54;100.00;96780.28;4801235;29;105263;-68
2023/09/06 09:58:14;;;;;;;9.13;5.67;;;;;;;23.35;100.00;96771.22;4804167;29;105214;-68
2023/09/06 10:00:42;;;;;;;6.23;5.63;;;;;;;23.56;100.00;96774.84;4801154;29;105518;-68
2023/09/06 10:03:10;;;;;;;6.00;5.17;;;;;;;23.56;100.00;96774.84;4800661;29;105685;-68
2023/09/06 10:05:39;;;;;;;5.83;5.27;;;;;;;23.03;100.00;96777.13;4816965;29;102145;-68
2023/09/06 10:08:10;;;;;;;5.77;5.13;;;;;;;23.88;100.00;96783.25;4801069;29;104314;-68
2023/09/06 10:10:39;;;;;;;6.37;4.93;;;;;;;23.76;100.00;96785.03;4800659;29;105799;-68
2023/09/06 10:13:08;;;;;;;5.00;4.60;;;;;;;24.18;100.00;96776.72;4801084;29;102022;-68
2023/09/06 10:15:35;;;;;;;6.13;5.20;;;;;;;23.52;100.00;96784.75;4800980;29;105494;-68
2023/09/06 10:18:03;;;;;;;5.47;4.97;;;;;;;23.58;100.00;96778.03;4800554;29;105739;-68
2023/09/06 10:20:32;;;;;;;5.80;5.30;;;;;;;23.21;100.00;96779.53;4832931;29;102154;-68
2023/09/06 10:23:00;;;;;;;5.10;4.60;;;;;;;23.82;100.00;96779.06;4854281;29;105299;-68
2023/09/06 10:25:29;;;;;;;6.40;5.80;;;;;;;23.44;100.00;96772.00;4856357;28;102188;-68
2023/09/06 10:27:59;;;;;;;5.60;4.93;;;;;;;24.00;100.00;96779.84;4856157;28;102694;-68
2023/09/06 10:30:43;;;;;;;5.47;4.87;;;;;;;23.27;100.00;96778.25;4853573;28;105828;-68
2023/09/06 10:33:11;;;;;;;5.70;5.10;;;;;;;23.15;100.00;96780.00;4854833;29;101930;-68
2023/09/06 10:35:43;;;;;;;5.93;4.63;;;;;;;23.25;100.00;96771.53;4853445;29;105450;-68
2023/09/06 10:38:14;;;;;;;6.07;5.47;;;;;;;23.21;100.00;96774.09;4853935;29;106344;-68
2023/09/06 10:41:11;;;;;;;5.63;5.17;;;;;;;24.03;100.00;96768.34;4859574;28;101850;-68
2023/09/06 10:43:55;;;;;;;7.17;5.70;;;;;;;23.98;100.00;96773.94;4854045;28;104370;-68
2023/09/06 10:46:28;;;;;;;4.60;4.20;;;;;;;24.59;100.00;96774.13;4854619;29;101923;-68
2023/09/06 10:49:14;;;;;;;5.73;4.73;;;;;;;25.03;100.00;96775.41;4855927;29;102723;-68
2023/09/06 10:51:59;;;;;;;4.10;3.80;;;;;;;25.49;100.00;96769.69;4853651;28;105494;-68
2023/09/06 10:54:34;;;;;;;6.47;4.90;;;;;;;25.52;100.00;96771.78;4854380;29;101987;-68
2023/09/06 10:57:16;;;;;;;5.57;4.63;;;;;;;24.80;100.00;96769.47;4854510;29;106296;-68
2023/09/06 10:59:44;;;;;;;6.40;4.67;;;;;;;25.25;100.00;96767.72;4855341;28;103361;-68
2023/09/06 11:02:17;;;;;;;4.70;4.23;;;;;;;25.79;100.00;96771.16;4854312;28;102145;-68
2023/09/06 11:04:44;;;;;;;6.33;4.60;;;;;;;25.72;100.00;96766.25;4857036;29;105219;-68
2023/09/06 11:07:12;;;;;;;5.50;4.00;;;;;;;26.26;100.00;96759.53;4854100;29;102008;-68
2023/09/06 11:09:43;;;;;;;4.60;4.20;;;;;;;26.62;100.00;96759.53;4855653;29;102881;-68
2023/09/06 11:12:17;;;;;;;5.00;4.50;;;;;;;25.81;100.00;96757.97;4853596;29;105838;-68
2023/09/06 11:14:49;;;;;;;6.20;4.37;;;;;;;25.93;100.00;96756.09;4854037;29;101957;-68
2023/09/06 11:17:23;;;;;;;4.67;4.27;;;;;;;26.50;100.00;96756.81;4854161;29;104402;-68
2023/09/06 11:19:51;;;;;;;4.03;3.63;;;;;;;27.23;100.00;96749.25;4853480;29;105518;-68
2023/09/06 11:22:18;;;;;;;6.70;4.30;;;;;;;26.76;100.00;96751.75;4853826;28;101953;-68
2023/09/06 11:24:48;;;;;;;4.20;3.90;;;;;;;26.18;100.00;96762.38;4854034;28;104536;-68